Time;durP1;ratioP1;P1;durP2;ratioP2;P2;SDS_P1;SDS_P2;PMS_P1;PMS_P2;Temp;Humidity;BMP_temperature;BMP_pressure;BME280_temperature;BME280_humidity;BME280_pressure;Samples;Min_cycle;Max_cycle;Signal;HPM_P1;HPM_P2
2023/06/12 00:01:36;;;;;;;0.40;0.30;;;;;;;10.68;100.00;99912.42;105194;1263;61623;-44
2023/06/12 00:04:04;;;;;;;2.00;0.50;;;;;;;10.71;100.00;99906.73;105299;1256;60060;-44
2023/06/12 00:06:32;;;;;;;2.30;0.40;;;;;;;10.72;100.00;99905.98;108769;1257;72782;-44
2023/06/12 00:09:00;;;;;;;1.40;0.30;;;;;;;10.71;100.00;99901.38;106007;1263;66264;-44
2023/06/12 00:11:27;;;;;;;0.40;0.30;;;;;;;10.71;100.00;99898.34;105166;1260;71482;-43
2023/06/12 00:13:54;;;;;;;0.40;0.30;;;;;;;10.72;100.00;99898.21;105064;1257;60423;-43
2023/06/12 00:16:22;;;;;;;0.30;0.30;;;;;;;10.73;100.00;99896.39;105163;1262;59544;-44
2023/06/12 00:18:51;;;;;;;1.10;0.30;;;;;;;10.72;100.00;99891.22;105205;1260;71783;-44
2023/06/12 00:21:25;;;;;;;1.40;0.30;;;;;;;10.71;100.00;99890.73;105097;1262;66767;-43
2023/06/12 00:23:52;;;;;;;2.90;0.30;;;;;;;10.71;100.00;99892.55;105097;1264;72067;-44
2023/06/12 00:26:19;;;;;;;0.60;0.30;;;;;;;10.71;100.00;99896.70;105381;1262;60637;-44
2023/06/12 00:28:47;;;;;;;0.50;0.30;;;;;;;10.71;100.00;99898.86;105191;1257;60280;-44
2023/06/12 00:31:15;;;;;;;1.70;0.30;;;;;;;10.71;100.00;99903.34;105120;1258;72790;-43
2023/06/12 00:33:42;;;;;;;0.60;0.30;;;;;;;10.70;100.00;99905.54;105107;1257;67981;-43
2023/06/12 00:36:10;;;;;;;2.90;0.30;;;;;;;10.69;100.00;99905.95;106154;1257;72474;-44
2023/06/12 00:38:38;;;;;;;0.50;0.30;;;;;;;10.68;100.00;99905.98;105256;1263;62008;-44
2023/06/12 00:41:05;;;;;;;3.70;0.30;;;;;;;10.70;100.00;99904.84;104954;1264;59865;-44
2023/06/12 00:43:33;;;;;;;0.40;0.30;;;;;;;10.72;100.00;99900.98;105079;1256;71435;-44
2023/06/12 00:46:01;;;;;;;0.60;0.30;;;;;;;10.73;100.00;99898.56;105089;1262;67582;-43
2023/06/12 00:48:28;;;;;;;0.60;0.30;;;;;;;10.73;100.00;99900.17;105096;1257;72162;-44
2023/06/12 00:50:56;;;;;;;3.60;0.30;;;;;;;10.75;100.00;99895.04;105209;1257;61180;-45
2023/06/12 00:53:24;;;;;;;0.40;0.30;;;;;;;10.78;100.00;99899.77;105384;1256;60166;-44
2023/06/12 00:55:51;;;;;;;1.80;0.20;;;;;;;10.81;100.00;99903.95;105208;1261;70779;-44
2023/06/12 00:58:18;;;;;;;3.70;0.30;;;;;;;10.82;100.00;99903.35;105049;1257;66680;-44
2023/06/12 01:00:48;;;;;;;0.40;0.30;;;;;;;10.83;100.00;99907.41;105331;1257;72397;-43
2023/06/12 01:03:15;;;;;;;0.90;0.30;;;;;;;10.84;100.00;99914.71;105163;1257;61728;-44
2023/06/12 01:05:44;;;;;;;0.50;0.30;;;;;;;10.85;100.00;99920.41;105416;1257;60546;-43
2023/06/12 01:08:16;;;;;;;1.20;0.30;;;;;;;10.84;100.00;99923.90;105492;1257;73903;-44
2023/06/12 01:10:56;;;;;;;1.80;0.30;;;;;;;10.83;100.00;99921.23;105306;1257;65846;-42
2023/06/12 01:13:23;;;;;;;0.50;0.30;;;;;;;10.83;100.00;99925.52;106200;1257;72765;-45
2023/06/12 01:15:51;;;;;;;0.70;0.30;;;;;;;10.84;100.00;99934.66;105387;1259;60382;-44
2023/06/12 01:18:20;;;;;;;1.20;0.30;;;;;;;10.85;100.00;99959.58;105251;1263;59608;-46
2023/06/12 01:20:53;;;;;;;3.20;0.40;;;;;;;10.89;100.00;99968.89;105482;1258;72042;-44
2023/06/12 01:23:33;;;;;;;3.20;0.30;;;;;;;10.91;100.00;99976.86;105562;1257;68196;-43
2023/06/12 01:26:33;;;;;;;2.10;0.20;;;;;;;10.91;100.00;99974.90;105239;1263;71222;-41
2023/06/12 01:29:16;;;;;;;2.40;0.30;;;;;;;10.94;100.00;99975.33;105342;1259;61721;-45
2023/06/12 01:31:43;;;;;;;1.40;0.30;;;;;;;10.93;100.00;99987.77;105151;1260;59721;-45
2023/06/12 01:34:20;;;;;;;3.80;0.30;;;;;;;10.90;100.00;99990.94;105453;1258;73084;-43
2023/06/12 01:36:53;;;;;;;0.90;0.20;;;;;;;10.88;100.00;99994.46;105157;1257;68426;-45
2023/06/12 01:39:20;;;;;;;1.90;0.30;;;;;;;10.87;100.00;99997.37;105005;1259;71470;-45
2023/06/12 01:41:47;;;;;;;0.90;0.30;;;;;;;10.87;100.00;99998.27;105056;1257;61800;-44
2023/06/12 01:44:17;;;;;;;0.50;0.20;;;;;;;10.89;100.00;100002.65;105109;1257;59737;-44
2023/06/12 01:46:44;;;;;;;0.40;0.20;;;;;;;10.90;100.00;100002.21;105087;1263;74624;-45
2023/06/12 01:49:13;;;;;;;0.60;0.30;;;;;;;10.91;100.00;100002.02;105291;1257;68158;-44
2023/06/12 01:51:40;;;;;;;0.90;0.30;;;;;;;10.92;100.00;99998.58;105073;1256;72622;-44
2023/06/12 01:54:08;;;;;;;0.70;0.20;;;;;;;10.91;100.00;99997.33;105993;1262;62295;-44
2023/06/12 01:56:36;;;;;;;1.70;0.30;;;;;;;10.90;100.00;100000.60;105105;1257;60031;-44
2023/06/12 01:59:04;;;;;;;1.20;0.20;;;;;;;10.92;100.00;100001.80;106212;1257;71762;-45
2023/06/12 02:01:38;;;;;;;2.50;0.40;;;;;;;10.90;100.00;100000.27;105216;1256;67554;-43
2023/06/12 02:04:06;;;;;;;6.00;0.30;;;;;;;10.89;100.00;100001.40;105058;1262;73584;-44
2023/06/12 02:06:34;;;;;;;1.10;0.30;;;;;;;10.88;100.00;100001.44;106804;1259;61692;-44
2023/06/12 02:09:01;;;;;;;0.60;0.30;;;;;;;10.88;100.00;100001.98;105240;1255;60399;-45
2023/06/12 02:11:29;;;;;;;1.40;0.30;;;;;;;10.88;100.00;100001.62;105181;1263;72340;-43
2023/06/12 02:13:56;;;;;;;4.70;0.30;;;;;;;10.87;100.00;100003.30;105049;1259;68734;-43
2023/06/12 02:16:23;;;;;;;0.40;0.30;;;;;;;10.86;100.00;100002.95;104912;1260;73386;-43
2023/06/12 02:18:52;;;;;;;0.70;0.40;;;;;;;10.87;100.00;100005.65;105390;1260;60457;-45
2023/06/12 02:21:20;;;;;;;1.90;0.30;;;;;;;10.86;100.00;100006.36;108733;1256;60740;-45
2023/06/12 02:23:48;;;;;;;0.40;0.20;;;;;;;10.87;100.00;100009.58;108726;1256;72512;-46
2023/06/12 02:26:18;;;;;;;0.50;0.30;;;;;;;10.89;100.00;100013.25;108770;1256;67532;-46
2023/06/12 02:28:47;;;;;;;0.40;0.20;;;;;;;10.92;100.00;100012.22;108734;1256;72975;-46
2023/06/12 02:31:14;;;;;;;3.10;0.40;;;;;;;10.93;100.00;100012.89;108845;1255;59409;-44
2023/06/12 02:33:42;;;;;;;2.00;0.20;;;;;;;10.92;100.00;100009.85;107994;1254;58792;-44
2023/06/12 02:36:11;;;;;;;1.00;0.40;;;;;;;10.96;100.00;100012.94;105406;1253;71547;-45
2023/06/12 02:38:38;;;;;;;1.40;0.30;;;;;;;10.99;100.00;100012.24;105409;1260;67768;-45
2023/06/12 02:41:12;;;;;;;1.90;0.30;;;;;;;11.01;100.00;100009.98;105349;1259;73042;-45
2023/06/12 02:43:40;;;;;;;1.50;0.30;;;;;;;11.05;100.00;100011.63;108886;1253;61630;-46
2023/06/12 02:46:07;;;;;;;3.50;0.30;;;;;;;11.09;100.00;100015.20;108993;1255;59963;-43
2023/06/12 02:48:35;;;;;;;1.10;0.30;;;;;;;11.11;100.00;100013.11;109117;1253;74561;-43
2023/06/12 02:51:02;;;;;;;0.60;0.30;;;;;;;11.13;100.00;100015.00;109011;1253;67750;-44
2023/06/12 02:53:31;;;;;;;0.40;0.30;;;;;;;11.16;100.00;100017.95;109123;1255;73162;-44
2023/06/12 02:55:58;;;;;;;3.70;0.30;;;;;;;11.20;100.00;100017.36;109066;1254;60454;-44
2023/06/12 02:58:27;;;;;;;0.60;0.30;;;;;;;11.24;100.00;100019.17;109120;1253;60011;-44
2023/06/12 03:00:56;;;;;;;0.40;0.20;;;;;;;11.26;100.00;100019.60;109064;1253;74022;-43
2023/06/12 03:03:25;;;;;;;1.70;0.20;;;;;;;11.31;100.00;100020.80;107617;1253;69066;-45
2023/06/12 03:05:52;;;;;;;3.10;0.30;;;;;;;11.35;100.00;100022.39;108974;1252;72712;-44
2023/06/12 03:08:20;;;;;;;0.50;0.20;;;;;;;11.38;100.00;100019.75;105984;1257;60866;-44
2023/06/12 03:10:47;;;;;;;1.40;0.20;;;;;;;11.42;100.00;100023.16;105308;1252;60464;-46
2023/06/12 03:13:14;;;;;;;4.20;0.30;;;;;;;11.45;100.00;100024.48;105376;1260;72592;-45
2023/06/12 03:15:42;;;;;;;1.80;0.40;;;;;;;11.47;100.00;100025.80;105237;1260;66972;-46
2023/06/12 03:18:09;;;;;;;0.30;0.30;;;;;;;11.52;100.00;100029.16;105732;1256;72690;-44
2023/06/12 03:20:37;;;;;;;1.80;0.30;;;;;;;11.58;100.00;100032.81;105400;1253;61719;-44
2023/06/12 03:23:05;;;;;;;2.30;0.30;;;;;;;11.64;100.00;100036.14;106054;1253;60319;-43
2023/06/12 03:25:32;;;;;;;0.50;0.30;;;;;;;11.66;100.00;100032.23;105175;1259;74736;-44
2023/06/12 03:28:00;;;;;;;1.00;0.30;;;;;;;11.68;100.00;100038.09;105428;1261;67214;-45
2023/06/12 03:30:27;;;;;;;0.30;0.30;;;;;;;11.69;100.00;100034.45;105370;1256;71358;-44
2023/06/12 03:32:56;;;;;;;5.40;0.30;;;;;;;11.69;100.00;100039.48;105422;1254;61357;-44
2023/06/12 03:35:24;;;;;;;3.40;0.20;;;;;;;11.68;100.00;100037.71;106825;1253;60583;-44
2023/06/12 03:37:52;;;;;;;1.80;0.30;;;;;;;11.68;100.00;100040.39;106144;1252;74422;-45
2023/06/12 03:40:20;;;;;;;2.30;0.30;;;;;;;11.73;100.00;100041.06;105401;1253;67870;-44
2023/06/12 03:42:47;;;;;;;3.40;0.40;;;;;;;11.79;100.00;100037.42;105419;1254;72617;-44
2023/06/12 03:45:15;;;;;;;3.80;0.30;;;;;;;11.83;100.00;100039.37;105431;1253;62193;-45
2023/06/12 03:47:42;;;;;;;5.20;0.40;;;;;;;11.83;100.00;100042.42;104914;1252;60570;-45
2023/06/12 03:50:10;;;;;;;5.50;0.40;;;;;;;11.83;100.00;100041.88;104772;1256;73796;-42
2023/06/12 03:52:39;;;;;;;4.20;0.40;;;;;;;11.86;100.00;100043.33;104912;1260;67739;-44
2023/06/12 03:55:07;;;;;;;1.10;0.30;;;;;;;11.91;100.00;100049.39;104850;1252;73184;-45
2023/06/12 03:57:34;;;;;;;0.50;0.30;;;;;;;11.95;100.00;100045.97;105228;1253;61802;-45
2023/06/12 04:00:02;;;;;;;1.10;0.40;;;;;;;12.00;100.00;100055.05;105455;1253;60310;-45
2023/06/12 04:02:31;;;;;;;1.80;0.30;;;;;;;12.04;100.00;100055.58;105254;1253;73768;-44
2023/06/12 04:05:00;;;;;;;2.50;0.30;;;;;;;12.05;100.00;100060.56;105456;1258;66347;-46
2023/06/12 04:07:28;;;;;;;0.50;0.20;;;;;;;12.11;100.00;100064.23;105299;1253;71120;-44
2023/06/12 04:09:56;;;;;;;0.70;0.30;;;;;;;12.19;100.00;100072.11;105863;1255;61799;-44
2023/06/12 04:12:23;;;;;;;2.20;0.80;;;;;;;12.25;100.00;100076.85;105359;1253;60887;-44
2023/06/12 04:14:50;;;;;;;0.90;0.30;;;;;;;12.30;100.00;100081.82;105408;1251;75992;-43
2023/06/12 04:17:18;;;;;;;3.10;0.30;;;;;;;12.33;100.00;100080.05;105281;1257;66798;-44
2023/06/12 04:19:48;;;;;;;0.60;0.20;;;;;;;12.34;100.00;100084.28;105408;1260;72419;-44
2023/06/12 04:22:16;;;;;;;1.80;0.20;;;;;;;12.38;100.00;100083.93;105488;1259;63720;-44
2023/06/12 04:24:45;;;;;;;0.60;0.30;;;;;;;12.44;100.00;100085.96;105868;1259;60451;-44
2023/06/12 04:27:16;;;;;;;1.00;0.30;;;;;;;12.48;100.00;100090.96;105722;1254;72768;-43
2023/06/12 04:29:45;;;;;;;2.20;0.40;;;;;;;12.51;100.00;100096.22;105356;1260;66349;-44
2023/06/12 04:32:14;;;;;;;1.90;0.30;;;;;;;12.54;100.00;100098.95;105535;1253;72708;-43
2023/06/12 04:34:43;;;;;;;0.50;0.30;;;;;;;12.55;100.00;100101.41;105665;1253;62084;-44
2023/06/12 04:37:13;;;;;;;1.90;0.30;;;;;;;12.61;100.00;100104.91;105545;1254;60379;-44
2023/06/12 04:39:41;;;;;;;0.50;0.40;;;;;;;12.68;100.00;100107.80;106075;1253;72610;-44
2023/06/12 04:42:10;;;;;;;0.40;0.30;;;;;;;12.72;100.00;100107.17;104801;1260;67645;-44
2023/06/12 04:44:39;;;;;;;1.20;0.40;;;;;;;12.78;100.00;100108.33;105044;1253;71467;-46
2023/06/12 04:47:14;;;;;;;0.40;0.30;;;;;;;12.83;100.00;100114.73;105885;1255;62683;-43
2023/06/12 04:49:45;;;;;;;1.30;0.40;;;;;;;12.91;100.00;100114.15;105565;1255;60394;-46
2023/06/12 04:52:13;;;;;;;2.90;0.30;;;;;;;13.01;100.00;100118.85;105324;1254;73765;-44
2023/06/12 04:54:44;;;;;;;1.00;0.30;;;;;;;13.09;100.00;100120.41;105364;1253;67892;-43
2023/06/12 04:57:12;;;;;;;4.70;0.40;;;;;;;13.16;100.00;100125.47;105560;1260;72713;-45
2023/06/12 04:59:42;;;;;;;2.20;0.30;;;;;;;13.24;100.00;100131.71;105430;1257;60534;-43
2023/06/12 05:02:09;;;;;;;1.60;0.40;;;;;;;13.29;100.00;100135.95;105882;1254;59192;-45
2023/06/12 05:04:38;;;;;;;3.20;0.30;;;;;;;13.30;100.00;100136.80;106283;1253;76071;-45
2023/06/12 05:07:08;;;;;;;1.30;0.40;;;;;;;13.30;100.00;100138.23;106353;1252;67361;-44
2023/06/12 05:09:35;;;;;;;3.40;0.30;;;;;;;13.35;100.00;100143.73;105311;1253;73570;-46
2023/06/12 05:12:03;;;;;;;0.50;0.40;;;;;;;13.38;100.00;100145.34;105454;1254;60506;-45
2023/06/12 05:14:39;;;;;;;1.30;0.30;;;;;;;13.43;100.00;100144.73;105780;1254;60534;-44
2023/06/12 05:17:07;;;;;;;2.20;0.40;;;;;;;13.48;100.00;100150.22;105132;1253;74231;-46
2023/06/12 05:19:35;;;;;;;4.30;0.40;;;;;;;13.52;100.00;100153.13;105950;1257;67522;-45
2023/06/12 05:22:03;;;;;;;2.60;0.40;;;;;;;13.53;100.00;100154.62;105498;1257;71344;-44
2023/06/12 05:24:32;;;;;;;0.30;0.30;;;;;;;13.53;100.00;100157.52;105464;1259;60482;-44
2023/06/12 05:27:00;;;;;;;0.40;0.30;;;;;;;13.52;100.00;100163.72;108968;1253;59980;-45
2023/06/12 05:29:27;;;;;;;0.60;0.30;;;;;;;13.52;100.00;100161.55;109009;1253;75743;-44
2023/06/12 05:31:55;;;;;;;1.00;0.30;;;;;;;13.52;100.00;100162.62;105757;1254;67630;-43
2023/06/12 05:34:22;;;;;;;4.70;0.30;;;;;;;13.51;100.00;100161.10;105316;1258;72048;-44
2023/06/12 05:36:50;;;;;;;0.80;0.30;;;;;;;13.48;100.00;100165.74;104623;1253;62403;-45
2023/06/12 05:39:17;;;;;;;1.40;0.40;;;;;;;13.44;100.00;100164.84;105109;1253;60991;-44
2023/06/12 05:41:44;;;;;;;1.20;0.30;;;;;;;13.41;100.00;100167.55;105506;1257;73931;-45
2023/06/12 05:44:12;;;;;;;0.70;0.30;;;;;;;13.38;100.00;100166.98;105032;1253;67558;-43
2023/06/12 05:46:39;;;;;;;5.00;0.60;;;;;;;13.39;100.00;100169.62;104917;1255;70424;-44
2023/06/12 05:49:07;;;;;;;1.20;0.30;;;;;;;13.44;100.00;100174.09;105235;1254;61724;-44
2023/06/12 05:51:35;;;;;;;1.30;0.30;;;;;;;13.48;100.00;100173.67;105361;1254;60614;-45
2023/06/12 05:54:03;;;;;;;0.70;0.30;;;;;;;13.53;100.00;100173.74;108988;1253;74960;-45
2023/06/12 05:56:30;;;;;;;2.10;0.40;;;;;;;13.53;100.00;100172.12;107612;1259;66306;-44
2023/06/12 05:58:59;;;;;;;0.40;0.40;;;;;;;13.57;100.00;100176.08;105240;1255;71394;-46
2023/06/12 06:01:27;;;;;;;2.10;0.30;;;;;;;13.62;100.00;100180.66;105269;1254;60553;-44
2023/06/12 06:03:55;;;;;;;2.70;0.30;;;;;;;13.68;100.00;100181.98;107423;1253;60457;-44
2023/06/12 06:06:23;;;;;;;4.00;0.30;;;;;;;13.75;100.00;100185.21;105330;1259;73127;-43
2023/06/12 06:08:51;;;;;;;1.60;0.30;;;;;;;13.80;100.00;100187.27;106964;1257;67898;-42
2023/06/12 06:11:20;;;;;;;1.10;0.40;;;;;;;13.86;100.00;100192.89;105134;1260;71825;-45
2023/06/12 06:13:48;;;;;;;1.00;0.30;;;;;;;13.89;100.00;100199.54;107409;1255;62510;-45
2023/06/12 06:16:15;;;;;;;0.60;0.30;;;;;;;13.93;100.00;100202.60;105374;1253;60403;-42
2023/06/12 06:18:42;;;;;;;8.10;1.00;;;;;;;13.97;100.00;100202.19;105333;1257;73855;-43
2023/06/12 06:21:11;;;;;;;1.50;0.50;;;;;;;14.02;100.00;100206.27;105501;1254;68916;-44
2023/06/12 06:23:39;;;;;;;0.50;0.40;;;;;;;14.06;100.00;100212.31;105368;1259;72432;-43
2023/06/12 06:26:09;;;;;;;2.50;0.40;;;;;;;14.09;100.00;100212.21;109156;1253;59597;-45
2023/06/12 06:28:36;;;;;;;1.30;0.50;;;;;;;14.10;100.00;100216.08;105628;1257;60531;-44
2023/06/12 06:31:06;;;;;;;1.00;0.40;;;;;;;14.13;100.00;100215.56;105433;1253;73816;-43
2023/06/12 06:33:48;;;;;;;1.20;0.40;;;;;;;14.14;100.00;100217.15;105665;1253;67721;-45
2023/06/12 06:36:23;;;;;;;0.70;0.30;;;;;;;14.10;100.00;100217.71;109064;1253;72659;-45
2023/06/12 06:38:51;;;;;;;4.20;0.30;;;;;;;14.06;100.00;100220.10;108969;1252;61635;-45
2023/06/12 06:41:18;;;;;;;1.50;0.30;;;;;;;14.02;100.00;100221.53;108974;1252;58834;-45
2023/06/12 06:43:46;;;;;;;0.30;0.30;;;;;;;13.99;100.00;100230.96;107426;1253;74754;-45
2023/06/12 06:46:14;;;;;;;1.00;0.30;;;;;;;13.97;100.00;100245.30;106065;1261;65976;-43
2023/06/12 06:48:41;;;;;;;6.20;0.40;;;;;;;13.98;100.00;100247.21;105759;1254;71604;-43
2023/06/12 06:51:09;;;;;;;1.30;0.40;;;;;;;14.00;100.00;100246.08;105410;1259;60463;-44
2023/06/12 06:53:36;;;;;;;0.30;0.30;;;;;;;14.01;100.00;100253.23;105498;1257;60735;-44
2023/06/12 06:56:05;;;;;;;1.20;0.40;;;;;;;14.01;100.00;100251.77;105505;1254;71801;-43
2023/06/12 06:58:33;;;;;;;0.80;0.30;;;;;;;14.02;100.00;100256.77;105601;1253;67278;-45
2023/06/12 07:01:01;;;;;;;0.80;0.40;;;;;;;14.00;100.00;100262.48;105478;1257;70616;-44
2023/06/12 07:03:28;;;;;;;1.10;0.40;;;;;;;13.96;100.00;100262.16;105428;1252;60433;-45
2023/06/12 07:05:56;;;;;;;2.90;0.70;;;;;;;13.92;100.00;100262.02;105535;1257;61103;-45
2023/06/12 07:08:24;;;;;;;3.20;0.40;;;;;;;13.89;100.00;100260.73;105370;1253;73769;-43
2023/06/12 07:10:52;;;;;;;1.20;0.50;;;;;;;13.85;100.00;100260.59;105179;1253;67876;-44
2023/06/12 07:13:19;;;;;;;0.60;0.30;;;;;;;13.82;100.00;100259.48;105003;1253;72722;-45
2023/06/12 07:15:53;;;;;;;1.80;0.50;;;;;;;13.80;100.00;100261.05;105155;1256;60726;-45
2023/06/12 07:18:21;;;;;;;4.10;0.50;;;;;;;13.78;100.00;100260.77;105491;1257;60428;-44
2023/06/12 07:20:49;;;;;;;2.50;0.50;;;;;;;13.79;100.00;100263.98;105303;1258;72759;-45
2023/06/12 07:23:16;;;;;;;1.20;0.50;;;;;;;13.81;100.00;100268.03;105464;1254;66632;-45
2023/06/12 07:25:44;;;;;;;3.00;0.60;;;;;;;13.84;100.00;100274.36;105385;1256;72423;-43
2023/06/12 07:28:11;;;;;;;0.60;0.40;;;;;;;13.86;100.00;100274.27;105427;1253;60584;-44
2023/06/12 07:30:39;;;;;;;1.00;0.40;;;;;;;13.84;100.00;100283.01;105367;1254;60777;-44
2023/06/12 07:33:06;;;;;;;4.00;0.40;;;;;;;13.80;100.00;100287.52;105013;1253;72927;-44
2023/06/12 07:35:35;;;;;;;1.80;0.40;;;;;;;13.80;100.00;100291.70;105107;1260;68809;-41
2023/06/12 07:38:03;;;;;;;1.90;0.40;;;;;;;13.82;100.00;100292.14;105560;1259;70929;-44
2023/06/12 07:40:31;;;;;;;2.20;1.00;;;;;;;13.86;100.00;100325.14;105382;1255;60676;-44
2023/06/12 07:43:00;;;;;;;2.10;0.50;;;;;;;13.84;100.00;100341.66;105697;1253;60437;-43
2023/06/12 07:45:27;;;;;;;2.00;0.40;;;;;;;13.82;100.00;100342.30;105833;1253;75720;-43
2023/06/12 07:47:57;;;;;;;4.20;0.50;;;;;;;13.81;100.00;100343.24;105376;1253;67293;-44
2023/06/12 07:50:27;;;;;;;1.20;0.40;;;;;;;13.82;100.00;100342.99;105504;1259;73139;-42
2023/06/12 07:52:55;;;;;;;2.60;0.40;;;;;;;13.85;100.00;100345.55;105333;1253;61744;-45
2023/06/12 07:55:22;;;;;;;5.10;0.50;;;;;;;13.89;100.00;100341.55;105360;1253;60541;-45
2023/06/12 07:57:52;;;;;;;0.80;0.40;;;;;;;13.98;100.00;100339.99;105532;1259;73721;-45
2023/06/12 08:00:20;;;;;;;4.50;0.50;;;;;;;14.08;100.00;100345.05;105348;1253;67685;-44
2023/06/12 08:02:57;;;;;;;3.60;0.40;;;;;;;14.17;100.00;100347.79;105399;1253;70943;-43
2023/06/12 08:05:32;;;;;;;3.10;0.50;;;;;;;14.26;100.00;100343.20;105511;1255;60541;-44
2023/06/12 08:08:02;;;;;;;0.70;0.40;;;;;;;14.33;100.00;100341.00;105258;1261;60407;-46
2023/06/12 08:10:32;;;;;;;4.80;0.50;;;;;;;14.37;100.00;100342.41;105400;1258;72572;-44
2023/06/12 08:13:00;;;;;;;1.90;0.30;;;;;;;14.41;100.00;100341.68;105345;1259;67928;-43
2023/06/12 08:15:28;;;;;;;3.30;0.50;;;;;;;14.46;100.00;100344.13;106054;1256;71441;-44
2023/06/12 08:17:56;;;;;;;2.40;0.50;;;;;;;14.52;100.00;100343.23;105483;1253;60517;-45
2023/06/12 08:20:24;;;;;;;1.80;0.60;;;;;;;14.59;100.00;100345.18;109191;1253;59962;-43
2023/06/12 08:22:55;;;;;;;6.40;0.50;;;;;;;14.65;100.00;100353.33;109051;1252;74268;-44
2023/06/12 08:25:23;;;;;;;0.60;0.50;;;;;;;14.70;100.00;100345.81;108971;1254;67594;-44
2023/06/12 08:27:55;;;;;;;1.20;0.40;;;;;;;14.77;100.00;100349.61;109162;1253;72703;-44
2023/06/12 08:30:24;;;;;;;3.10;0.40;;;;;;;14.85;100.00;100347.73;108881;1253;60025;-43
2023/06/12 08:32:51;;;;;;;3.20;0.40;;;;;;;14.90;100.00;100347.95;105470;1253;60420;-43
2023/06/12 08:35:19;;;;;;;3.00;0.40;;;;;;;14.89;100.00;100348.21;108991;1252;73804;-44
2023/06/12 08:37:47;;;;;;;4.30;0.40;;;;;;;14.85;100.00;100349.52;108944;1252;67715;-43
2023/06/12 08:40:15;;;;;;;1.10;0.50;;;;;;;14.82;100.00;100343.36;105356;1257;71455;-44
2023/06/12 08:42:44;;;;;;;3.80;0.50;;;;;;;14.83;100.00;100346.02;105335;1256;60266;-42
2023/06/12 08:45:12;;;;;;;1.00;0.50;;;;;;;14.87;100.00;100344.70;108976;1252;58956;-45
2023/06/12 08:47:51;;;;;;;3.30;0.40;;;;;;;14.92;100.00;100344.77;109094;1253;73248;-45
2023/06/12 08:50:19;;;;;;;1.90;0.30;;;;;;;14.93;100.00;100343.99;109135;1253;67580;-45
2023/06/12 08:52:46;;;;;;;0.40;0.30;;;;;;;14.99;100.00;100336.96;106762;1252;72664;-44
2023/06/12 08:55:14;;;;;;;1.30;0.30;;;;;;;15.09;100.00;100338.34;108951;1258;60394;-45
2023/06/12 08:57:43;;;;;;;4.80;0.80;;;;;;;15.23;100.00;100335.58;109054;1252;60143;-45
2023/06/12 09:00:14;;;;;;;4.00;0.50;;;;;;;15.38;100.00;100335.42;107988;1255;73009;-45
2023/06/12 09:02:54;;;;;;;0.80;0.40;;;;;;;15.53;100.00;100343.58;105111;1253;67562;-44
2023/06/12 09:05:26;;;;;;;2.30;0.40;;;;;;;15.60;100.00;100340.06;105715;1259;72663;-44
2023/06/12 09:07:54;;;;;;;0.50;0.40;;;;;;;15.65;100.00;100335.62;106790;1252;60461;-44
2023/06/12 09:10:21;;;;;;;1.00;0.30;;;;;;;15.72;100.00;100333.96;105203;1261;62584;-44
2023/06/12 09:12:53;;;;;;;3.70;0.40;;;;;;;15.78;100.00;100331.73;105092;1253;72639;-45
2023/06/12 09:15:21;;;;;;;0.60;0.40;;;;;;;15.89;100.00;100333.08;105394;1258;68358;-45
2023/06/12 09:17:49;;;;;;;0.80;0.30;;;;;;;15.99;100.00;100327.43;105820;1253;72619;-44
2023/06/12 09:20:27;;;;;;;2.20;0.40;;;;;;;16.08;100.00;100325.76;105333;1253;60425;-45
2023/06/12 09:23:00;;;;;;;0.70;0.40;;;;;;;16.13;100.00;100326.35;105501;1258;60512;-44
2023/06/12 09:25:39;;;;;;;4.30;0.50;;;;;;;16.10;100.00;100325.41;105359;1258;73817;-45
2023/06/12 09:28:09;;;;;;;1.00;0.40;;;;;;;16.08;100.00;100323.91;105710;1253;68478;-44
2023/06/12 09:30:41;;;;;;;1.40;0.60;;;;;;;16.08;100.00;100322.34;105622;1253;72930;-43
2023/06/12 09:33:08;;;;;;;0.50;0.50;;;;;;;16.10;100.00;100324.70;105342;1253;61729;-43
2023/06/12 09:35:50;;;;;;;1.40;0.40;;;;;;;16.11;100.00;100321.57;106292;1253;60480;-44
2023/06/12 09:38:18;;;;;;;3.00;0.60;;;;;;;16.07;100.00;100318.79;105427;1259;73852;-45
2023/06/12 09:40:54;;;;;;;2.10;0.40;;;;;;;16.06;100.00;100319.23;107614;1253;67757;-45
2023/06/12 09:43:24;;;;;;;3.00;0.40;;;;;;;16.09;100.00;100319.86;105249;1258;72792;-44
2023/06/12 09:45:51;;;;;;;3.00;0.50;;;;;;;16.15;100.00;100316.99;105321;1252;60527;-45
2023/06/12 09:48:19;;;;;;;7.40;0.50;;;;;;;16.16;100.00;100319.23;105579;1253;60459;-45
2023/06/12 09:50:46;;;;;;;1.00;0.50;;;;;;;16.14;100.00;100312.33;105503;1252;74630;-45
2023/06/12 09:53:17;;;;;;;1.80;0.50;;;;;;;16.09;100.00;100310.32;105803;1258;67149;-45
2023/06/12 09:55:45;;;;;;;2.70;0.40;;;;;;;16.02;100.00;100309.27;105496;1253;72356;-44
2023/06/12 09:58:13;;;;;;;1.20;0.50;;;;;;;16.00;100.00;100305.08;105564;1259;60563;-44
2023/06/12 10:00:40;;;;;;;2.90;0.70;;;;;;;15.97;100.00;100306.16;105447;1253;60537;-45
2023/06/12 10:03:09;;;;;;;0.90;0.60;;;;;;;15.94;100.00;100309.25;105349;1253;73971;-45
2023/06/12 10:05:38;;;;;;;2.50;0.50;;;;;;;15.92;100.00;100308.27;106198;1252;67542;-44
2023/06/12 10:08:06;;;;;;;3.30;0.60;;;;;;;15.92;100.00;100312.44;105384;1254;71368;-44
2023/06/12 10:10:35;;;;;;;4.00;0.50;;;;;;;15.89;100.00;100317.33;105392;1257;60536;-43
2023/06/12 10:13:03;;;;;;;0.60;0.50;;;;;;;15.87;100.00;100320.52;105508;1257;60456;-45
2023/06/12 10:15:30;;;;;;;2.10;0.50;;;;;;;15.85;100.00;100318.46;105813;1253;72652;-45
2023/06/12 10:17:58;;;;;;;1.10;0.50;;;;;;;15.82;100.00;100323.38;105407;1259;68389;-44
2023/06/12 10:20:26;;;;;;;0.70;0.50;;;;;;;15.80;100.00;100326.77;105494;1253;73180;-44
2023/06/12 10:22:54;;;;;;;0.60;0.40;;;;;;;15.78;100.00;100324.52;105388;1253;62155;-44
2023/06/12 10:25:21;;;;;;;0.70;0.50;;;;;;;15.77;100.00;100321.12;105483;1253;61748;-43
2023/06/12 10:27:49;;;;;;;0.90;0.40;;;;;;;15.77;100.00;100314.62;105354;1259;72029;-45
2023/06/12 10:30:16;;;;;;;1.10;0.40;;;;;;;15.73;100.00;100314.13;105241;1259;67891;-45
2023/06/12 10:32:45;;;;;;;1.40;0.40;;;;;;;15.66;100.00;100317.09;105705;1253;391456;-45
2023/06/12 10:36:46;;;;;;;1.10;0.40;;;;;;;15.57;100.00;100295.43;101939;1294;600976;-44
2023/06/12 10:39:16;;;;;;;3.40;0.80;;;;;;;15.47;100.00;100304.86;105315;1268;59332;-45
2023/06/12 10:41:57;;;;;;;2.60;0.40;;;;;;;15.41;100.00;100304.67;105140;1270;59256;-44
2023/06/12 10:44:38;;;;;;;2.20;0.30;;;;;;;15.38;100.00;100300.52;104027;1268;72941;-46
2023/06/12 10:47:19;;;;;;;0.30;0.30;;;;;;;15.37;100.00;100292.23;105471;1269;68166;-45
2023/06/12 10:50:00;;;;;;;2.20;0.40;;;;;;;15.38;100.00;100291.46;104139;1267;203490;-45
2023/06/12 10:52:28;;;;;;;2.90;0.50;;;;;;;15.41;100.00;100289.13;104465;1267;62148;-45
2023/06/12 10:55:17;;;;;;;6.80;0.50;;;;;;;15.41;100.00;100287.47;104421;1268;59267;-45
2023/06/12 10:57:52;;;;;;;0.40;0.40;;;;;;;15.40;100.00;100292.21;106203;1267;70675;-45
2023/06/12 11:00:21;;;;;;;1.50;0.40;;;;;;;15.36;100.00;100294.29;106353;1267;66679;-45
2023/06/12 11:03:06;;;;;;;2.00;0.40;;;;;;;15.32;100.00;100292.35;104654;1268;71721;-46
2023/06/12 11:05:33;;;;;;;0.50;0.40;;;;;;;15.30;100.00;100287.77;104511;1267;59675;-45
2023/06/12 11:08:07;;;;;;;3.10;0.60;;;;;;;15.29;100.00;100290.20;106761;1267;60056;-47
2023/06/12 11:10:35;;;;;;;0.50;0.50;;;;;;;15.26;100.00;100276.83;107982;1265;71849;-47
2023/06/12 11:13:03;;;;;;;1.80;0.50;;;;;;;15.18;100.00;100279.09;105998;1267;67538;-44
2023/06/12 11:15:33;;;;;;;2.80;0.50;;;;;;;15.09;100.00;100275.64;104548;1265;72347;-44
2023/06/12 11:18:00;;;;;;;2.00;0.40;;;;;;;15.05;100.00;100271.91;108254;1265;63379;-46
2023/06/12 11:20:27;;;;;;;0.70;0.60;;;;;;;15.04;100.00;100269.09;108268;1265;62204;-44